createdAt,value
2019-02-02T00:00:38.640Z,96.80
2019-02-02T00:03:07.979Z,96.80
2019-02-02T00:05:36.939Z,96.80
2019-02-02T00:08:06.671Z,96.80
2019-02-02T00:10:35.734Z,96.80
2019-02-02T00:13:04.958Z,96.80
2019-02-02T00:15:33.827Z,96.80
2019-02-02T00:18:02.667Z,96.90
2019-02-02T00:20:31.544Z,96.90
2019-02-02T00:23:00.506Z,96.90
2019-02-02T00:25:29.382Z,96.90
2019-02-02T00:27:58.211Z,96.90
2019-02-02T00:30:27.079Z,96.90
2019-02-02T00:32:55.919Z,96.90
2019-02-02T00:35:24.795Z,96.90
2019-02-02T00:37:53.615Z,96.90
2019-02-02T00:40:22.482Z,97.00
2019-02-02T00:42:51.725Z,96.90
2019-02-02T00:45:22.555Z,96.90
2019-02-02T00:47:52.298Z,96.90
2019-02-02T00:50:21.365Z,96.90
2019-02-02T00:52:50.191Z,97.00
2019-02-02T00:55:19.862Z,96.90
2019-02-02T00:57:53.517Z,96.90
2019-02-02T01:00:26.715Z,96.90
2019-02-02T01:02:55.839Z,96.90
2019-02-02T01:05:25.011Z,96.80
2019-02-02T01:07:54.550Z,96.80
2019-02-02T01:10:29.135Z,96.90
2019-02-02T01:12:57.967Z,96.90
2019-02-02T01:15:27.039Z,96.90
2019-02-02T01:17:55.873Z,96.90
2019-02-02T01:20:24.839Z,96.90
2019-02-02T01:22:53.676Z,96.90
2019-02-02T01:25:22.552Z,96.90
2019-02-02T01:27:51.480Z,97.20
2019-02-02T01:30:22.731Z,96.90
2019-02-02T01:32:51.556Z,97.00
2019-02-02T01:35:20.728Z,97.00
2019-02-02T01:37:49.659Z,97.00
2019-02-02T01:40:23.288Z,97.00
2019-02-02T01:42:52.119Z,97.00
2019-02-02T01:45:23.998Z,97.00
2019-02-02T01:47:52.932Z,96.90
2019-02-02T01:50:29.303Z,97.00
2019-02-02T01:52:58.337Z,97.00
2019-02-02T01:55:27.502Z,97.00
2019-02-02T01:57:56.325Z,97.00
2019-02-02T02:00:33.485Z,97.00
2019-02-02T02:03:02.514Z,97.00
2019-02-02T02:05:31.382Z,97.10
2019-02-02T02:08:00.423Z,97.10
2019-02-02T02:10:29.290Z,97.10
2019-02-02T02:12:58.123Z,97.10
2019-02-02T02:15:26.966Z,97.00
2019-02-02T02:17:55.831Z,97.00
2019-02-02T02:20:24.745Z,97.00
2019-02-02T02:22:53.639Z,97.00
2019-02-02T02:25:22.471Z,97.00
2019-02-02T02:27:51.444Z,97.00
2019-02-02T02:30:22.761Z,97.00
2019-02-02T02:32:53.298Z,97.00
2019-02-02T02:35:22.128Z,97.00
2019-02-02T02:37:50.992Z,97.00
2019-02-02T02:40:24.664Z,97.10
2019-02-02T02:42:54.131Z,97.00
2019-02-02T02:45:23.066Z,97.10
2019-02-02T02:47:51.943Z,97.10
2019-02-02T02:50:23.747Z,97.10
2019-02-02T02:52:52.621Z,97.10
2019-02-02T02:55:21.449Z,97.10
2019-02-02T02:57:50.319Z,97.10
2019-02-02T03:00:30.117Z,97.10
2019-02-02T03:02:58.992Z,97.10
2019-02-02T03:05:28.023Z,97.20
2019-02-02T03:07:56.890Z,97.20
2019-02-02T03:10:26.829Z,97.20
2019-02-02T03:12:55.840Z,97.20
2019-02-02T03:15:24.620Z,97.50
2019-02-02T03:17:53.591Z,97.20
2019-02-02T03:20:22.422Z,97.20
2019-02-02T03:22:57.906Z,97.20
2019-02-02T03:25:27.140Z,97.20
2019-02-02T03:27:56.011Z,97.20
2019-02-02T03:30:24.840Z,97.20
2019-02-02T03:32:53.714Z,97.20
2019-02-02T03:35:23.953Z,97.30
2019-02-02T03:37:53.014Z,97.30
2019-02-02T03:40:23.350Z,97.20
2019-02-02T03:42:52.627Z,97.20
2019-02-02T03:45:23.911Z,97.20
2019-02-02T03:47:54.596Z,97.20
2019-02-02T03:50:23.431Z,97.20
2019-02-02T03:52:52.295Z,97.20
2019-02-02T03:55:21.123Z,97.20
2019-02-02T03:57:49.987Z,97.60
2019-02-02T04:00:22.867Z,97.20
2019-02-02T04:02:51.728Z,97.20
2019-02-02T04:05:22.967Z,97.20
2019-02-02T04:07:51.934Z,97.20
2019-02-02T04:10:20.762Z,97.20
2019-02-02T04:12:49.634Z,97.30
2019-02-02T04:15:18.962Z,97.30
2019-02-02T04:17:47.845Z,97.30
2019-02-02T04:20:18.574Z,97.20
2019-02-02T04:22:47.742Z,97.20
2019-02-02T04:25:17.671Z,97.20
2019-02-02T04:27:46.565Z,97.10
2019-02-02T04:30:28.615Z,97.20
2019-02-02T04:32:57.568Z,97.10
2019-02-02T04:35:26.420Z,97.10
2019-02-02T04:37:55.299Z,97.20
2019-02-02T04:40:24.131Z,97.20
2019-02-02T04:42:53.006Z,97.20
2019-02-02T04:45:21.831Z,97.30
2019-02-02T04:47:50.699Z,97.30
2019-02-02T04:50:20.942Z,97.30
2019-02-02T04:52:49.770Z,97.30
2019-02-02T04:55:19.742Z,97.30
2019-02-02T04:57:48.579Z,97.30
2019-02-02T05:00:22.587Z,97.30
2019-02-02T05:02:51.625Z,97.30
2019-02-02T05:05:20.698Z,97.30
2019-02-02T05:07:49.534Z,97.30
2019-02-02T05:10:20.767Z,97.30
2019-02-02T05:12:50.025Z,97.30
2019-02-02T05:15:18.970Z,97.30
2019-02-02T05:17:47.807Z,97.20
2019-02-02T05:20:22.703Z,97.30
2019-02-02T05:22:51.538Z,97.20
2019-02-02T05:25:20.516Z,97.20
2019-02-02T05:27:49.347Z,97.20
2019-02-02T05:30:36.696Z,97.20
2019-02-02T05:33:05.526Z,97.30
2019-02-02T05:35:34.512Z,97.20
2019-02-02T05:38:03.435Z,97.20
2019-02-02T05:40:32.307Z,97.20
2019-02-02T05:43:01.144Z,97.30
2019-02-02T05:45:30.013Z,97.30
2019-02-02T05:47:58.843Z,97.30
2019-02-02T05:50:27.705Z,97.50
2019-02-02T05:52:56.539Z,97.40
2019-02-02T05:55:25.402Z,97.40
2019-02-02T05:57:54.231Z,97.40
2019-02-02T06:00:30.319Z,97.40
2019-02-02T06:02:59.155Z,97.40
2019-02-02T06:05:28.049Z,97.40
2019-02-02T06:07:56.850Z,97.40
2019-02-02T06:10:25.727Z,97.40
2019-02-02T06:12:54.553Z,97.40
2019-02-02T06:15:23.425Z,97.40
2019-02-02T06:17:52.255Z,97.40
2019-02-02T06:20:21.116Z,97.40
2019-02-02T06:22:49.941Z,97.40
2019-02-02T06:25:18.843Z,97.40
2019-02-02T06:27:47.660Z,97.40
2019-02-02T06:30:21.929Z,97.50
2019-02-02T06:32:50.783Z,97.40
2019-02-02T06:35:20.335Z,97.40
2019-02-02T06:37:49.170Z,97.40
2019-02-02T06:40:18.243Z,97.40
2019-02-02T06:43:06.349Z,97.60
2019-02-02T06:45:37.018Z,97.40
2019-02-02T06:48:06.156Z,97.40
2019-02-02T06:50:35.031Z,97.40
2019-02-02T06:53:04.167Z,97.30
2019-02-02T06:55:33.031Z,97.40
2019-02-02T06:58:01.863Z,97.40
2019-02-02T07:00:31.335Z,97.30
2019-02-02T07:03:00.166Z,97.40
2019-02-02T07:05:29.041Z,97.30
2019-02-02T07:07:57.871Z,97.40
2019-02-02T07:10:29.011Z,97.40
2019-02-02T07:12:57.836Z,97.40
2019-02-02T07:15:28.909Z,97.40
2019-02-02T07:17:57.748Z,97.40
2019-02-02T07:20:26.721Z,97.40
2019-02-02T07:22:55.555Z,97.40
2019-02-02T07:25:24.419Z,97.40
2019-02-02T07:27:53.263Z,97.40
2019-02-02T07:30:28.617Z,97.40
2019-02-02T07:32:54.410Z,97.40
2019-02-02T07:35:23.582Z,97.40
2019-02-02T07:37:52.517Z,97.40
2019-02-02T07:40:22.182Z,97.30
2019-02-02T07:42:51.226Z,97.40
2019-02-02T07:45:25.179Z,97.40
2019-02-02T07:47:54.021Z,97.40
2019-02-02T07:50:22.842Z,97.40
2019-02-02T07:52:51.706Z,97.40
2019-02-02T07:55:22.046Z,97.40
2019-02-02T07:57:51.015Z,97.40
2019-02-02T08:00:39.718Z,97.40
2019-02-02T08:02:59.194Z,97.50
2019-02-02T08:05:28.132Z,97.40
2019-02-02T08:07:56.999Z,97.30
2019-02-02T08:10:25.835Z,97.40
2019-02-02T08:12:54.708Z,97.30
2019-02-02T08:15:28.767Z,97.30
2019-02-02T08:17:57.630Z,97.40
2019-02-02T08:20:26.468Z,97.30
2019-02-02T08:22:56.621Z,97.30
2019-02-02T08:25:25.687Z,97.40
2019-02-02T08:27:54.551Z,97.40
2019-02-02T08:30:25.855Z,97.40
2019-02-02T08:32:54.759Z,97.40
2019-02-02T08:35:23.559Z,97.50
2019-02-02T08:37:52.428Z,97.50
2019-02-02T08:40:21.355Z,97.50
2019-02-02T08:42:50.236Z,97.60
2019-02-02T08:45:19.058Z,97.60
2019-02-02T08:47:47.942Z,97.50
2019-02-02T08:50:22.564Z,97.60
2019-02-02T08:52:51.437Z,97.60
2019-02-02T08:55:20.384Z,97.50
2019-02-02T08:57:49.249Z,97.60
2019-02-02T09:00:19.779Z,97.60
2019-02-02T09:02:48.765Z,97.60
2019-02-02T09:05:22.345Z,97.60
2019-02-02T09:07:51.214Z,97.60
2019-02-02T09:10:22.047Z,97.60
2019-02-02T09:12:50.924Z,97.60
2019-02-02T09:15:20.159Z,97.60
2019-02-02T09:17:49.023Z,97.60
2019-02-02T09:20:17.621Z,97.60
2019-02-02T09:22:47.391Z,97.60
2019-02-02T09:25:20.114Z,97.60
2019-02-02T09:27:49.096Z,97.60
2019-02-02T09:30:32.396Z,97.60
2019-02-02T09:33:01.310Z,97.70
2019-02-02T09:35:30.135Z,97.60
2019-02-02T09:38:01.669Z,97.60
2019-02-02T09:40:30.593Z,97.60
2019-02-02T09:42:59.455Z,97.70
2019-02-02T09:45:28.305Z,97.60
2019-02-02T09:47:57.157Z,97.70
2019-02-02T09:50:27.492Z,97.70
2019-02-02T09:52:56.463Z,97.70
2019-02-02T09:55:26.398Z,97.70
2019-02-02T09:57:57.876Z,97.70
2019-02-02T10:00:31.818Z,97.70
2019-02-02T10:03:00.691Z,97.70
2019-02-02T10:05:30.620Z,97.70
2019-02-02T10:07:59.517Z,97.70
2019-02-02T10:10:30.525Z,97.70
2019-02-02T10:12:59.607Z,97.70
2019-02-02T10:15:28.443Z,97.70
2019-02-02T10:17:57.507Z,97.70
2019-02-02T10:20:28.243Z,97.70
2019-02-02T10:22:57.915Z,97.70
2019-02-02T10:25:28.651Z,97.70
2019-02-02T10:27:57.523Z,97.70
2019-02-02T10:30:31.435Z,97.70
2019-02-02T10:33:00.484Z,97.80
2019-02-02T10:35:29.579Z,97.80
2019-02-02T10:37:58.405Z,97.80
2019-02-02T10:40:29.870Z,97.80
2019-02-02T10:42:57.757Z,97.80
2019-02-02T10:45:26.737Z,97.90
2019-02-02T10:47:55.563Z,97.80
2019-02-02T10:50:25.927Z,97.80
2019-02-02T10:52:54.760Z,97.90
2019-02-02T10:55:23.650Z,97.90
2019-02-02T10:57:52.479Z,97.90
2019-02-02T11:00:23.660Z,97.90
2019-02-02T11:02:52.504Z,97.90
2019-02-02T11:05:21.489Z,97.80
2019-02-02T11:07:50.367Z,97.80
2019-02-02T11:10:27.396Z,97.80
2019-02-02T11:12:56.613Z,97.90
2019-02-02T11:15:25.826Z,97.90
2019-02-02T11:17:54.729Z,97.90
2019-02-02T11:20:29.096Z,98.00
2019-02-02T11:22:57.943Z,97.90
2019-02-02T11:25:26.823Z,97.90
2019-02-02T11:27:55.824Z,97.90
2019-02-02T11:30:25.182Z,98.00
2019-02-02T11:32:54.023Z,97.90
2019-02-02T11:35:23.295Z,97.90
2019-02-02T11:37:52.318Z,97.90
2019-02-02T11:40:27.111Z,97.90
2019-02-02T11:42:56.240Z,97.80
2019-02-02T11:45:25.102Z,97.90
2019-02-02T11:47:53.939Z,97.80
2019-02-02T11:50:23.314Z,97.90
2019-02-02T11:52:52.167Z,97.80
2019-02-02T11:55:22.838Z,97.70
2019-02-02T11:57:51.666Z,97.90
2019-02-02T12:00:26.379Z,97.80
2019-02-02T12:02:55.214Z,97.80
2019-02-02T12:05:24.391Z,97.70
2019-02-02T12:07:53.223Z,97.60
2019-02-02T12:10:33.194Z,97.70
2019-02-02T12:13:02.024Z,97.60
2019-02-02T12:15:30.895Z,97.60
2019-02-02T12:17:59.735Z,97.60
2019-02-02T12:20:28.707Z,97.50
2019-02-02T12:22:57.541Z,97.50
2019-02-02T12:25:29.231Z,97.40
2019-02-02T12:27:58.071Z,97.30
2019-02-02T12:30:34.424Z,97.10
2019-02-02T12:33:03.820Z,97.10
2019-02-02T12:35:32.726Z,97.00
2019-02-02T12:38:01.562Z,96.90
2019-02-02T12:40:30.436Z,96.90
2019-02-02T12:42:59.273Z,96.80
2019-02-02T12:45:43.112Z,96.70
2019-02-02T12:48:11.932Z,96.80
2019-02-02T12:50:40.907Z,96.70
2019-02-02T12:53:09.731Z,96.60
2019-02-02T12:55:38.599Z,96.60
2019-02-02T12:58:08.032Z,96.50
2019-02-02T13:00:36.948Z,96.40
2019-02-02T13:03:06.131Z,96.30
2019-02-02T13:05:34.995Z,96.30
2019-02-02T13:08:05.299Z,96.30
2019-02-02T13:10:34.364Z,96.20
2019-02-02T13:13:03.301Z,96.10
2019-02-02T13:15:32.134Z,96.10
2019-02-02T13:18:00.996Z,96.10
2019-02-02T13:20:29.862Z,96.00
2019-02-02T13:22:58.703Z,96.00
2019-02-02T13:25:29.106Z,95.90
2019-02-02T13:27:57.982Z,95.90
2019-02-02T13:30:31.955Z,95.90
2019-02-02T13:33:00.822Z,95.90
2019-02-02T13:35:32.059Z,95.60
2019-02-02T13:38:00.926Z,95.60
2019-02-02T13:40:29.754Z,95.60
2019-02-02T13:42:58.739Z,95.40
2019-02-02T13:45:27.561Z,95.40
2019-02-02T13:47:56.426Z,95.40
2019-02-02T13:50:25.291Z,95.10
2019-02-02T13:52:54.128Z,95.10
2019-02-02T13:55:22.959Z,94.90
2019-02-02T13:57:51.824Z,94.70
2019-02-02T14:00:25.850Z,94.60
2019-02-02T14:03:02.927Z,94.50
2019-02-02T14:05:25.199Z,94.50
2019-02-02T14:07:54.059Z,94.30
2019-02-02T14:10:24.995Z,94.30
2019-02-02T14:12:53.867Z,94.30
2019-02-02T14:15:22.801Z,94.10
2019-02-02T14:17:51.667Z,94.00
2019-02-02T14:20:20.494Z,93.90
2019-02-02T14:22:58.343Z,93.80
2019-02-02T14:25:27.176Z,93.70
2019-02-02T14:27:56.049Z,93.80
2019-02-02T14:30:26.547Z,93.80
2019-02-02T14:32:55.485Z,93.80
2019-02-02T14:35:28.446Z,93.80
2019-02-02T14:37:57.311Z,93.90
2019-02-02T14:40:26.143Z,93.90
2019-02-02T14:42:55.024Z,94.00
2019-02-02T14:45:27.552Z,94.10
2019-02-02T14:47:56.364Z,94.10
2019-02-02T14:50:25.605Z,94.10
2019-02-02T14:52:54.967Z,94.20
2019-02-02T14:55:28.919Z,94.20
2019-02-02T14:57:57.787Z,94.20
2019-02-02T15:00:28.593Z,94.30
2019-02-02T15:02:57.779Z,94.30
2019-02-02T15:05:26.691Z,94.40
2019-02-02T15:07:55.587Z,94.40
2019-02-02T15:10:24.714Z,94.40
2019-02-02T15:12:53.591Z,94.50
2019-02-02T15:15:22.419Z,94.60
2019-02-02T15:17:51.287Z,94.60
2019-02-02T15:20:32.043Z,94.70
2019-02-02T15:23:00.910Z,94.80
2019-02-02T15:25:29.771Z,94.80
2019-02-02T15:27:58.651Z,95.10
2019-02-02T15:30:29.950Z,94.80
2019-02-02T15:32:58.872Z,94.90
2019-02-02T15:35:27.707Z,95.00
2019-02-02T15:37:56.575Z,95.00
2019-02-02T15:40:25.406Z,95.10
2019-02-02T15:42:54.401Z,95.10
2019-02-02T15:45:28.771Z,95.20
2019-02-02T15:47:57.651Z,95.30
2019-02-02T15:50:26.478Z,95.30
2019-02-02T15:52:55.346Z,95.40
2019-02-02T15:55:25.182Z,95.40
2019-02-02T15:57:54.016Z,95.50
2019-02-02T16:00:31.102Z,95.50
2019-02-02T16:03:00.166Z,95.50
2019-02-02T16:05:29.540Z,95.60
2019-02-02T16:08:00.267Z,95.50
2019-02-02T16:10:33.204Z,95.60
2019-02-02T16:13:02.047Z,95.70
2019-02-02T16:15:33.934Z,95.80
2019-02-02T16:18:01.527Z,95.80
2019-02-02T16:20:41.712Z,95.80
2019-02-02T16:23:09.239Z,95.80
2019-02-02T16:25:38.119Z,95.80
2019-02-02T16:28:07.279Z,95.90
2019-02-02T16:30:36.185Z,95.90
2019-02-02T16:33:05.434Z,96.00
2019-02-02T16:35:34.283Z,96.00
2019-02-02T16:38:03.121Z,96.10
2019-02-02T16:40:32.382Z,96.10
2019-02-02T16:43:01.223Z,96.10
2019-02-02T16:45:31.823Z,96.10
2019-02-02T16:48:00.886Z,96.10
2019-02-02T16:50:30.364Z,96.10
2019-02-02T16:52:59.257Z,96.00
2019-02-02T16:55:28.094Z,96.10
2019-02-02T16:57:56.932Z,96.10
2019-02-02T17:00:33.782Z,96.10
2019-02-02T17:03:02.777Z,96.20
2019-02-02T17:05:31.785Z,96.20
2019-02-02T17:08:00.682Z,96.00
2019-02-02T17:10:35.002Z,96.30
2019-02-02T17:13:06.233Z,96.30
2019-02-02T17:15:35.387Z,96.30
2019-02-02T17:18:04.872Z,96.30
2019-02-02T17:20:36.007Z,96.30
2019-02-02T17:23:05.266Z,96.30
2019-02-02T17:25:34.251Z,96.40
2019-02-02T17:28:03.229Z,96.40
2019-02-02T17:30:32.191Z,96.40
2019-02-02T17:33:04.631Z,96.30
2019-02-02T17:35:33.517Z,96.40
2019-02-02T17:38:02.457Z,96.40
2019-02-02T17:40:31.370Z,96.40
2019-02-02T17:43:00.188Z,96.40
2019-02-02T17:45:29.186Z,96.40
2019-02-02T17:47:58.045Z,96.50
2019-02-02T17:50:28.535Z,96.50
2019-02-02T17:52:57.491Z,96.50
2019-02-02T17:55:26.487Z,96.40
2019-02-02T17:57:55.325Z,96.50
2019-02-02T18:00:34.507Z,96.60
2019-02-02T18:03:03.388Z,96.50
2019-02-02T18:05:32.265Z,96.50
2019-02-02T18:08:01.123Z,96.50
2019-02-02T18:10:30.012Z,96.50
2019-02-02T18:12:58.860Z,96.50
2019-02-02T18:15:27.748Z,96.60
2019-02-02T18:17:56.608Z,96.60
2019-02-02T18:20:25.533Z,96.60
2019-02-02T18:22:54.371Z,96.50
2019-02-02T18:25:23.359Z,96.60
2019-02-02T18:27:52.239Z,96.50
2019-02-02T18:30:26.127Z,96.50
2019-02-02T18:32:55.098Z,96.50
2019-02-02T18:35:24.736Z,96.50
2019-02-02T18:37:53.940Z,96.50
2019-02-02T18:40:24.086Z,96.50
2019-02-02T18:42:53.062Z,96.50
2019-02-02T18:45:27.679Z,96.50
2019-02-02T18:47:56.664Z,96.50
2019-02-02T18:50:25.574Z,96.90
2019-02-02T18:52:56.158Z,96.60
2019-02-02T18:55:30.701Z,96.60
2019-02-02T18:57:59.535Z,96.70
2019-02-02T19:00:28.463Z,96.60
2019-02-02T19:02:57.493Z,96.60
2019-02-02T19:05:28.993Z,96.60
2019-02-02T19:07:56.886Z,96.60
2019-02-02T19:10:31.040Z,96.50
2019-02-02T19:13:00.007Z,96.50
2019-02-02T19:15:28.834Z,96.60
2019-02-02T19:17:57.719Z,96.60
2019-02-02T19:20:26.538Z,96.60
2019-02-02T19:22:57.233Z,96.60
2019-02-02T19:25:25.891Z,96.60
2019-02-02T19:27:54.756Z,96.60
2019-02-02T19:30:34.641Z,96.50
2019-02-02T19:33:03.510Z,96.60
2019-02-02T19:35:44.640Z,96.50
2019-02-02T19:38:13.583Z,96.50
2019-02-02T19:40:42.426Z,96.60
2019-02-02T19:43:14.279Z,96.60
2019-02-02T19:45:43.113Z,96.60
2019-02-02T19:48:11.994Z,96.60
2019-02-02T19:50:40.832Z,96.70
2019-02-02T19:53:09.802Z,96.60
2019-02-02T19:55:38.647Z,96.60
2019-02-02T19:58:07.512Z,96.60
2019-02-02T20:00:36.859Z,96.70
2019-02-02T20:03:06.443Z,96.70
2019-02-02T20:05:35.274Z,96.80
2019-02-02T20:08:04.350Z,96.70
2019-02-02T20:10:36.323Z,96.70
2019-02-02T20:13:05.503Z,96.70
2019-02-02T20:15:34.331Z,96.70
2019-02-02T20:18:10.035Z,96.80
2019-02-02T20:20:34.414Z,96.70
2019-02-02T20:23:03.301Z,96.70
2019-02-02T20:25:32.131Z,96.70
2019-02-02T20:28:01.092Z,96.70
2019-02-02T20:30:31.999Z,96.70
2019-02-02T20:33:00.858Z,96.80
2019-02-02T20:35:40.248Z,96.80
2019-02-02T20:38:01.139Z,96.70
2019-02-02T20:40:29.971Z,96.70
2019-02-02T20:42:58.847Z,97.10
2019-02-02T20:45:30.174Z,96.70
2019-02-02T20:47:59.181Z,96.80
2019-02-02T20:50:28.009Z,96.80
2019-02-02T20:52:57.027Z,96.80
2019-02-02T20:55:31.275Z,96.80
2019-02-02T20:58:00.143Z,96.80
2019-02-02T21:00:30.307Z,96.80
2019-02-02T21:02:59.139Z,96.80
2019-02-02T21:05:28.003Z,96.90
2019-02-02T21:07:57.235Z,96.90
2019-02-02T21:10:38.131Z,96.80
2019-02-02T21:13:08.626Z,96.80
2019-02-02T21:15:37.609Z,96.80
2019-02-02T21:18:06.748Z,96.80
2019-02-02T21:20:36.004Z,97.20
2019-02-02T21:23:05.796Z,96.90
2019-02-02T21:25:37.383Z,96.90
2019-02-02T21:28:07.834Z,97.00
2019-02-02T21:30:39.371Z,97.00
2019-02-02T21:33:08.735Z,97.00
2019-02-02T21:35:37.611Z,97.00
2019-02-02T21:38:06.443Z,97.00
2019-02-02T21:40:38.299Z,97.00
2019-02-02T21:43:07.346Z,97.00
2019-02-02T21:45:39.440Z,97.00
2019-02-02T21:48:08.475Z,97.10
2019-02-02T21:50:37.347Z,97.10
2019-02-02T21:53:09.139Z,97.00
2019-02-02T21:55:40.862Z,97.10
2019-02-02T21:58:12.584Z,97.10
2019-02-02T22:00:42.553Z,97.10
2019-02-02T22:03:11.511Z,97.10
2019-02-02T22:05:40.383Z,97.10
2019-02-02T22:08:09.519Z,97.20
2019-02-02T22:10:39.119Z,97.20
2019-02-02T22:13:08.114Z,97.20
2019-02-02T22:15:37.032Z,97.20
2019-02-02T22:18:06.074Z,97.20
2019-02-02T22:20:35.029Z,97.20
2019-02-02T22:23:03.827Z,97.30
2019-02-02T22:25:36.727Z,97.30
2019-02-02T22:28:05.858Z,97.30
2019-02-02T22:30:41.828Z,97.30
2019-02-02T22:33:10.786Z,97.30
2019-02-02T22:35:40.254Z,97.30
2019-02-02T22:38:09.190Z,97.30
2019-02-02T22:40:38.070Z,97.30
2019-02-02T22:43:06.900Z,97.40
2019-02-02T22:45:35.758Z,97.40
2019-02-02T22:48:05.187Z,97.40
2019-02-02T22:50:34.054Z,97.40
2019-02-02T22:53:02.887Z,97.40
2019-02-02T22:55:31.755Z,97.40
2019-02-02T22:58:00.583Z,97.50
2019-02-02T23:00:52.200Z,97.50
2019-02-02T23:03:23.979Z,97.40
2019-02-02T23:06:12.142Z,97.50
2019-02-02T23:08:53.115Z,97.50
2019-02-02T23:11:48.951Z,97.50
2019-02-02T23:14:29.346Z,97.70
2019-02-02T23:16:58.214Z,97.50
2019-02-02T23:19:27.183Z,97.50
2019-02-02T23:21:56.032Z,97.50
2019-02-02T23:24:24.895Z,97.60
2019-02-02T23:26:53.775Z,97.50
2019-02-02T23:29:22.659Z,97.60
2019-02-02T23:31:52.891Z,97.60
2019-02-02T23:34:23.231Z,97.60
2019-02-02T23:36:53.793Z,97.60
2019-02-02T23:39:22.643Z,97.60
2019-02-02T23:41:51.474Z,97.60
2019-02-02T23:44:20.342Z,97.60
2019-02-02T23:46:49.176Z,97.70
2019-02-02T23:49:18.048Z,97.70
2019-02-02T23:51:46.879Z,97.70
2019-02-02T23:54:15.742Z,97.70
2019-02-02T23:56:47.163Z,97.70
2019-02-02T23:59:16.035Z,97.70
